TimeCDT,TemperatureF,Dew PointF,Humidity,Sea Level PressureIn,VisibilityMPH,Wind Direction,Wind SpeedMPH,Gust SpeedMPH,PrecipitationIn,Events,Conditions,WindDirDegrees,DateUTC
12:06 AM,66.0,62.1,87,30.00,4.0,WNW,6.9,-,0.05,Rain-Thunderstorm,Thunderstorms and Rain,300,2013-06-15 05:06:00
12:54 AM,69.1,62.1,78,30.02,10.0,SW,9.2,-,0.15,Rain-Thunderstorm,Light Thunderstorms and Rain,230,2013-06-15 05:54:00
1:27 AM,69.1,61.0,75,29.87,10.0,ESE,10.4,24.2,0.06,Rain-Thunderstorm,Light Thunderstorms and Rain,110,2013-06-15 06:27:00
1:54 AM,68.0,63.0,84,29.92,10.0,WSW,8.1,-,0.08,Rain-Thunderstorm,Light Thunderstorms and Rain,240,2013-06-15 06:54:00
2:15 AM,69.1,62.1,78,29.93,10.0,SSE,4.6,-,0.00,Rain,Light Rain,160,2013-06-15 07:15:00
2:54 AM,68.0,62.1,81,29.88,10.0,SE,12.7,-,0.00,,Overcast,140,2013-06-15 07:54:00
3:54 AM,66.0,62.1,87,29.89,10.0,SE,6.9,-,N/A,,Mostly Cloudy,140,2013-06-15 08:54:00
4:54 AM,66.0,63.0,90,29.86,10.0,SSE,6.9,-,N/A,,Overcast,150,2013-06-15 09:54:00
5:54 AM,64.9,63.0,93,29.89,10.0,SE,4.6,-,N/A,,Mostly Cloudy,130,2013-06-15 10:54:00
6:54 AM,66.9,63.0,87,29.90,10.0,ESE,6.9,-,N/A,,Mostly Cloudy,110,2013-06-15 11:54:00
7:54 AM,69.1,64.0,84,29.91,10.0,SE,9.2,-,N/A,,Partly Cloudy,140,2013-06-15 12:54:00
8:54 AM,72.0,64.9,78,29.90,10.0,SSE,16.1,-,N/A,,Mostly Cloudy,160,2013-06-15 13:54:00
9:54 AM,70.0,64.9,84,29.91,10.0,SSE,10.4,-,N/A,,Overcast,160,2013-06-15 14:54:00
10:54 AM,72.0,66.9,84,29.91,10.0,SSE,5.8,-,0.00,,Mostly Cloudy,150,2013-06-15 15:54:00
11:54 AM,75.9,66.9,74,29.92,10.0,Calm,Calm,-,N/A,,Mostly Cloudy,0,2013-06-15 16:54:00
12:54 PM,79.0,69.1,72,29.92,10.0,West,5.8,-,N/A,,Mostly Cloudy,260,2013-06-15 17:54:00
1:54 PM,80.1,66.9,64,29.90,10.0,WNW,4.6,-,N/A,,Overcast,300,2013-06-15 18:54:00
2:54 PM,80.1,68.0,67,29.91,10.0,SSW,3.5,-,N/A,,Overcast,210,2013-06-15 19:54:00
3:54 PM,81.0,68.0,65,29.88,10.0,North,4.6,-,0.00,Rain,Light Rain,360,2013-06-15 20:54:00
4:54 PM,79.0,70.0,74,29.86,10.0,South,16.1,-,0.00,,Overcast,190,2013-06-15 21:54:00
5:54 PM,79.0,66.0,64,29.85,10.0,WNW,4.6,-,N/A,,Overcast,300,2013-06-15 22:54:00
6:54 PM,80.1,66.0,62,29.85,10.0,West,5.8,-,N/A,,Overcast,260,2013-06-15 23:54:00
7:54 PM,77.0,66.9,71,29.89,10.0,South,10.4,-,N/A,,Overcast,180,2013-06-16 00:54:00
8:54 PM,72.0,64.9,78,29.92,10.0,SSW,15.0,-,N/A,,Mostly Cloudy,200,2013-06-16 01:54:00
9:54 PM,70.0,64.9,84,29.94,10.0,South,6.9,-,N/A,,Mostly Cloudy,180,2013-06-16 02:54:00
10:36 PM,70.0,64.9,84,29.95,10.0,South,12.7,-,N/A,,Mostly Cloudy,180,2013-06-16 03:36:00
10:54 PM,69.1,64.0,84,29.93,10.0,South,11.5,-,N/A,,Mostly Cloudy,180,2013-06-16 03:54:00
11:10 PM,69.1,64.0,84,29.95,10.0,South,12.7,-,N/A,,Scattered Clouds,180,2013-06-16 04:10:00
11:33 PM,68.0,64.0,87,29.94,10.0,SSW,9.2,-,N/A,,Scattered Clouds,200,2013-06-16 04:33:00
11:51 PM,68.0,64.4,88,29.94,10.0,SSW,10.4,-,N/A,,Mostly Cloudy,200,2013-06-16 04:51:00
11:54 PM,68.0,64.0,87,29.92,10.0,SSW,9.2,-,N/A,,Overcast,200,2013-06-16 04:54:00